Time;durP1;ratioP1;P1;durP2;ratioP2;P2;SDS_P1;SDS_P2;PMS_P1;PMS_P2;Temp;Humidity;BMP_temperature;BMP_pressure;BME280_temperature;BME280_humidity;BME280_pressure;Samples;Min_cycle;Max_cycle;Signal;HPM_P1;HPM_P2
2023/02/27 00:01:00;;;;;;;6.05;4.07;;;;;;;19.39;32.85;102991.38;5020913;28;20045;-86
2023/02/27 00:03:26;;;;;;;4.63;3.10;;;;;;;19.48;32.85;102996.78;5021253;28;20045;-86
2023/02/27 00:05:52;;;;;;;4.82;3.47;;;;;;;19.37;32.91;102990.69;5020183;28;20017;-87
2023/02/27 00:08:17;;;;;;;4.32;3.05;;;;;;;19.35;33.00;102996.09;5018657;28;20535;-86
2023/02/27 00:10:44;;;;;;;4.32;3.15;;;;;;;19.48;32.70;103003.88;5027966;28;20099;-86
2023/02/27 00:13:10;;;;;;;4.82;3.10;;;;;;;19.47;32.79;103002.19;5027308;28;20045;-86
2023/02/27 00:15:37;;;;;;;4.68;3.35;;;;;;;19.35;32.79;102988.16;5025033;28;20460;-86
2023/02/27 00:18:03;;;;;;;3.88;2.90;;;;;;;19.28;32.90;102981.69;5023393;28;20137;-87
2023/02/27 00:20:31;;;;;;;4.65;3.25;;;;;;;19.47;32.75;103000.38;5020498;28;20765;-86
2023/02/27 00:22:56;;;;;;;4.68;3.00;;;;;;;19.42;32.91;103004.38;5019975;28;20029;-86
2023/02/27 00:25:22;;;;;;;3.92;2.97;;;;;;;19.36;33.16;103003.03;5017641;28;20358;-87
2023/02/27 00:27:47;;;;;;;4.78;3.28;;;;;;;19.41;32.80;103008.81;5019873;28;20025;-86
2023/02/27 00:30:14;;;;;;;4.45;2.78;;;;;;;19.37;32.82;103010.00;5021620;28;20498;-87
2023/02/27 00:32:40;;;;;;;3.95;3.15;;;;;;;19.47;32.76;103007.47;5022906;28;20160;-86
2023/02/27 00:35:08;;;;;;;4.10;2.90;;;;;;;19.37;32.81;102988.88;5025773;28;20041;-87
2023/02/27 00:37:34;;;;;;;5.03;3.47;;;;;;;19.31;33.04;103003.44;5025649;28;20041;-87
2023/02/27 00:40:00;;;;;;;3.65;2.67;;;;;;;19.30;32.80;102995.63;5016511;28;20256;-87
2023/02/27 00:42:27;;;;;;;5.05;3.38;;;;;;;19.36;32.83;102996.91;5024963;28;20045;-87
2023/02/27 00:44:53;;;;;;;4.57;2.60;;;;;;;19.35;32.92;102997.88;5023852;28;20073;-88
2023/02/27 00:47:19;;;;;;;3.92;2.75;;;;;;;19.26;32.87;102995.03;5025042;28;20029;-87
2023/02/27 00:49:44;;;;;;;3.80;2.60;;;;;;;19.36;32.68;102989.84;5024269;28;20430;-87
2023/02/27 00:52:10;;;;;;;4.25;3.00;;;;;;;19.37;32.73;102994.16;5015392;28;20056;-87
2023/02/27 00:54:35;;;;;;;4.60;2.78;;;;;;;19.30;32.69;102992.97;5022418;28;20077;-86
2023/02/27 00:57:01;;;;;;;3.78;2.70;;;;;;;19.37;32.78;102991.50;5020554;28;20121;-87
2023/02/27 00:59:26;;;;;;;3.72;2.65;;;;;;;19.39;32.59;102994.91;5022000;28;20057;-87
2023/02/27 01:01:52;;;;;;;3.40;2.50;;;;;;;19.29;32.72;102978.09;5023866;28;20048;-87
2023/02/27 01:04:17;;;;;;;3.13;2.05;;;;;;;19.29;32.80;102992.16;5025836;28;20064;-88
2023/02/27 01:06:43;;;;;;;3.58;2.30;;;;;;;19.33;32.82;102995.38;5024127;28;20056;-87
2023/02/27 01:09:09;;;;;;;3.30;2.22;;;;;;;19.26;32.72;102984.47;5023187;28;20057;-88
2023/02/27 01:11:34;;;;;;;3.53;2.42;;;;;;;19.19;33.04;102990.34;5015933;28;20037;-88
2023/02/27 01:14:00;;;;;;;3.55;2.90;;;;;;;19.16;32.81;102972.97;5018941;28;20427;-87
2023/02/27 01:16:26;;;;;;;2.70;2.15;;;;;;;19.19;32.84;102967.41;5021791;28;20049;-87
2023/02/27 01:18:52;;;;;;;3.95;2.67;;;;;;;19.32;32.85;102980.50;5021374;28;20045;-86
2023/02/27 01:21:20;;;;;;;3.10;2.33;;;;;;;19.34;32.80;102991.75;5021535;28;20127;-86
2023/02/27 01:23:45;;;;;;;3.63;2.53;;;;;;;19.38;32.64;102989.72;5020988;28;20066;-86
2023/02/27 01:26:11;;;;;;;3.83;2.30;;;;;;;19.30;32.94;102985.06;5002498;28;20033;-87
2023/02/27 01:28:36;;;;;;;2.70;1.88;;;;;;;19.25;33.02;102982.78;5017435;28;20029;-87
2023/02/27 01:31:03;;;;;;;3.10;2.15;;;;;;;19.30;32.86;102987.69;5018576;28;20037;-86
2023/02/27 01:33:31;;;;;;;2.40;2.10;;;;;;;19.18;32.99;102986.88;5018946;28;20041;-87
2023/02/27 01:35:59;;;;;;;2.53;2.08;;;;;;;19.17;33.08;103001.03;5017980;28;20070;-87
2023/02/27 01:38:25;;;;;;;2.85;2.10;;;;;;;19.06;33.06;102987.88;5016921;28;20119;-85
2023/02/27 01:40:51;;;;;;;2.92;2.03;;;;;;;19.22;32.98;102988.34;5017254;28;20052;-86
2023/02/27 01:43:19;;;;;;;2.47;1.90;;;;;;;19.06;33.18;102987.03;5022442;28;20041;-86
2023/02/27 01:45:47;;;;;;;2.22;1.90;;;;;;;19.23;33.06;102981.25;5023611;28;20036;-86
2023/02/27 01:48:20;;;;;;;2.15;1.90;;;;;;;19.16;33.01;102993.25;5021605;28;20072;-86
2023/02/27 01:51:08;;;;;;;2.00;1.77;;;;;;;19.15;33.01;102981.00;5017499;28;20641;-87
2023/02/27 01:53:36;;;;;;;2.65;1.88;;;;;;;19.17;32.90;102987.00;5026147;28;20033;-85
2023/02/27 01:56:15;;;;;;;3.28;2.20;;;;;;;19.18;32.91;102984.22;5023774;28;20072;-87
2023/02/27 01:58:42;;;;;;;2.50;1.90;;;;;;;19.20;33.08;102994.69;5001113;28;20155;-87
2023/02/27 02:01:07;;;;;;;1.98;1.80;;;;;;;19.21;32.88;102989.28;5018165;28;20045;-86
2023/02/27 02:03:55;;;;;;;2.05;1.85;;;;;;;19.15;32.98;102995.06;5018175;28;20045;-86
2023/02/27 02:06:21;;;;;;;2.03;1.70;;;;;;;19.11;33.18;103000.72;5019135;28;20029;-87
2023/02/27 02:08:49;;;;;;;2.33;1.85;;;;;;;19.27;32.87;103003.81;5022465;28;20053;-87
2023/02/27 02:11:18;;;;;;;;;;;;;;;19.17;33.11;102994.94;5022643;28;20073;-87
2023/02/27 02:13:44;;;;;;;2.83;1.60;;;;;;;19.09;33.02;102994.72;5021260;28;19918;-87
2023/02/27 02:16:42;;;;;;;2.78;1.92;;;;;;;19.16;33.07;103003.81;5021384;28;20092;-88
2023/02/27 02:19:32;;;;;;;1.95;1.70;;;;;;;19.22;33.09;103005.97;5001474;28;20051;-87
2023/02/27 02:22:36;;;;;;;3.45;2.00;;;;;;;19.16;33.17;103014.38;5024284;28;20099;-87
2023/02/27 02:25:39;;;;;;;2.10;1.75;;;;;;;19.24;33.01;103012.81;5025853;28;20080;-87
2023/02/27 02:28:33;;;;;;;1.67;1.50;;;;;;;19.13;33.23;103006.69;5025487;28;20064;-87
2023/02/27 02:31:36;;;;;;;1.98;1.58;;;;;;;19.21;33.10;103012.19;5027553;28;20041;-87
2023/02/27 02:34:51;;;;;;;2.05;1.58;;;;;;;19.14;33.14;103011.84;5021925;28;21216;-86
2023/02/27 02:37:59;;;;;;;1.35;1.25;;;;;;;19.27;32.95;103001.16;4966818;28;20105;-86
2023/02/27 02:41:16;;;;;;;1.73;1.60;;;;;;;19.10;33.04;102994.59;4955542;28;20042;-86
2023/02/27 02:44:08;;;;;;;1.42;1.33;;;;;;;19.15;33.13;103002.97;5013302;28;20071;-86
2023/02/27 02:47:04;;;;;;;2.25;1.35;;;;;;;19.20;32.95;102992.88;5015244;28;20068;-87
2023/02/27 02:49:30;;;;;;;1.50;1.40;;;;;;;19.16;33.13;102995.88;5024099;28;20044;-86
2023/02/27 02:52:12;;;;;;;1.98;1.60;;;;;;;19.08;33.20;102999.16;5042452;28;20033;-86
2023/02/27 02:54:44;;;;;;;1.13;1.08;;;;;;;19.09;33.24;102994.72;5024131;28;20068;-86
2023/02/27 02:57:18;;;;;;;2.05;1.63;;;;;;;19.04;33.43;102973.13;5034933;28;20049;-85
2023/02/27 02:59:55;;;;;;;1.67;1.58;;;;;;;19.02;33.32;102989.06;5021254;28;20067;-85
2023/02/27 03:02:28;;;;;;;1.30;1.20;;;;;;;19.06;33.11;102973.84;5019113;28;20091;-85
2023/02/27 03:05:05;;;;;;;3.05;1.58;;;;;;;19.14;33.18;102992.53;5024726;28;20049;-86
2023/02/27 03:07:37;;;;;;;1.20;1.10;;;;;;;19.02;33.27;102995.19;5035780;28;20104;-87
2023/02/27 03:10:07;;;;;;;1.55;1.45;;;;;;;19.01;33.19;102979.47;5023126;28;20085;-86
2023/02/27 03:12:36;;;;;;;1.40;1.30;;;;;;;19.12;33.06;102984.75;5022571;28;20041;-86
2023/02/27 03:15:07;;;;;;;1.90;1.70;;;;;;;19.10;33.07;102977.91;5024791;28;20116;-86
2023/02/27 03:17:46;;;;;;;1.70;1.60;;;;;;;19.09;33.21;102985.00;5007923;28;19925;-86
2023/02/27 03:20:28;;;;;;;1.23;0.97;;;;;;;19.18;33.05;102986.03;5019622;28;20145;-84
2023/02/27 03:23:01;;;;;;;1.60;1.45;;;;;;;19.10;33.18;102986.66;5018825;28;20478;-84
2023/02/27 03:25:27;;;;;;;1.23;1.10;;;;;;;19.13;33.10;102998.78;5027693;28;20030;-84
2023/02/27 03:28:03;;;;;;;1.58;1.27;;;;;;;19.04;33.17;102991.59;5016776;28;20099;-86
2023/02/27 03:30:34;;;;;;;1.98;1.40;;;;;;;19.08;33.36;102998.31;5019981;28;20041;-85
2023/02/27 03:33:11;;;;;;;1.65;1.13;;;;;;;18.98;33.29;102996.38;5035727;28;20029;-85
2023/02/27 03:36:04;;;;;;;1.75;1.25;;;;;;;19.02;33.26;102989.06;5017979;28;20034;-85
2023/02/27 03:38:47;;;;;;;1.23;1.13;;;;;;;19.18;32.98;102999.25;5013172;28;21589;-85
2023/02/27 03:41:30;;;;;;;1.20;1.10;;;;;;;19.01;33.09;102988.22;5017005;28;20057;-85
2023/02/27 03:44:22;;;;;;;1.35;1.25;;;;;;;19.14;33.24;103014.50;5018271;28;20121;-84
2023/02/27 03:46:50;;;;;;;1.40;1.30;;;;;;;19.14;33.10;103011.84;5033500;28;20060;-85
2023/02/27 03:49:16;;;;;;;1.77;1.30;;;;;;;18.98;33.22;103001.66;5037234;28;20406;-85
2023/02/27 03:51:41;;;;;;;1.23;1.13;;;;;;;19.08;33.30;103012.34;5018446;28;20040;-85
2023/02/27 03:54:20;;;;;;;1.67;1.38;;;;;;;19.01;33.45;103005.88;5037427;28;20041;-84
2023/02/27 03:57:01;;;;;;;1.58;1.30;;;;;;;19.08;33.24;103017.63;5021674;28;20037;-84
2023/02/27 03:59:29;;;;;;;1.00;1.00;;;;;;;19.17;33.13;103016.06;5036717;28;20459;-84
2023/02/27 04:01:57;;;;;;;1.20;1.10;;;;;;;18.98;33.37;102996.38;5000582;28;20112;-84
2023/02/27 04:04:26;;;;;;;1.42;1.17;;;;;;;19.07;33.28;103018.59;5016075;28;20041;-85
2023/02/27 04:07:44;;;;;;;1.45;1.13;;;;;;;19.02;33.23;103018.09;5015170;28;20120;-85
2023/02/27 04:10:30;;;;;;;1.63;1.40;;;;;;;19.01;33.19;103017.25;5014907;28;20072;-85
2023/02/27 04:13:21;;;;;;;1.42;1.15;;;;;;;19.01;33.38;103024.34;5017619;28;20503;-85
2023/02/27 04:15:52;;;;;;;1.55;0.95;;;;;;;19.00;33.27;103026.16;5022792;28;20546;-86
2023/02/27 04:18:36;;;;;;;1.08;1.00;;;;;;;18.83;33.54;103015.25;5017106;28;20472;-85
2023/02/27 04:21:07;;;;;;;1.45;1.10;;;;;;;18.93;33.27;103032.88;5015850;28;20395;-85
2023/02/27 04:23:39;;;;;;;0.80;0.80;;;;;;;18.95;33.33;103035.41;5019091;28;20510;-85
2023/02/27 04:26:32;;;;;;;1.23;1.08;;;;;;;18.93;33.38;103046.09;5013546;28;20038;-85
2023/02/27 04:29:36;;;;;;;1.42;1.20;;;;;;;18.92;33.44;103039.13;5015061;28;20045;-85
2023/02/27 04:32:16;;;;;;;2.00;1.70;;;;;;;19.04;33.31;103054.97;5014394;28;20087;-85
2023/02/27 04:34:52;;;;;;;0.90;0.90;;;;;;;19.00;33.49;103060.47;5013628;28;20033;-85
2023/02/27 04:37:30;;;;;;;2.05;1.38;;;;;;;18.99;33.12;103055.31;5015837;28;20095;-85
2023/02/27 04:40:05;;;;;;;1.08;1.02;;;;;;;19.02;33.04;103060.34;5016814;28;20042;-85
2023/02/27 04:42:36;;;;;;;1.27;1.17;;;;;;;18.99;33.36;103056.16;5018856;28;20041;-85
2023/02/27 04:45:07;;;;;;;0.90;0.90;;;;;;;18.95;33.50;103060.00;5015780;28;20630;-85
2023/02/27 04:47:43;;;;;;;1.50;1.20;;;;;;;18.92;33.33;103043.56;5016338;28;20041;-84
2023/02/27 04:50:15;;;;;;;1.92;1.40;;;;;;;18.97;33.33;103057.25;5018281;28;20033;-85
2023/02/27 04:52:50;;;;;;;1.00;0.90;;;;;;;18.97;33.18;103044.03;5016298;28;20093;-84
2023/02/27 04:55:26;;;;;;;1.52;1.13;;;;;;;19.01;33.34;103051.59;5013541;28;20038;-85
2023/02/27 04:58:03;;;;;;;1.42;0.82;;;;;;;19.00;33.24;103063.13;5015606;28;20610;-85
2023/02/27 05:00:32;;;;;;;1.10;1.00;;;;;;;18.95;33.31;103062.66;5020153;28;20048;-85
2023/02/27 05:03:07;;;;;;;1.00;0.95;;;;;;;18.95;33.49;103070.56;5016930;28;20618;-84
2023/02/27 05:05:35;;;;;;;1.20;1.10;;;;;;;19.05;33.21;103075.16;5011907;28;20172;-84
2023/02/27 05:08:15;;;;;;;1.85;1.38;;;;;;;18.98;33.16;103064.19;5019172;28;20437;-84
2023/02/27 05:10:57;;;;;;;1.08;1.02;;;;;;;19.00;33.14;103071.03;5014679;28;20697;-84
2023/02/27 05:13:37;;;;;;;1.88;1.00;;;;;;;19.01;33.12;103075.34;5020292;28;20029;-84
2023/02/27 05:16:15;;;;;;;1.20;0.90;;;;;;;18.95;33.25;103078.50;5016902;28;20041;-84
2023/02/27 05:18:41;;;;;;;1.10;1.00;;;;;;;18.97;33.34;103089.78;5018470;28;20042;-84
2023/02/27 05:21:28;;;;;;;1.23;1.02;;;;;;;19.00;33.20;103086.88;5010606;28;20045;-84
2023/02/27 05:24:08;;;;;;;1.13;0.82;;;;;;;18.87;33.37;103070.34;5016478;28;20049;-84
2023/02/27 05:26:54;;;;;;;;;;;;;;;18.99;33.31;103087.00;5017702;28;20496;-83
2023/02/27 05:29:19;;;;;;;1.23;0.90;;;;;;;19.03;33.26;103096.38;5007266;28;19917;-84
2023/02/27 05:32:26;;;;;;;1.40;1.20;;;;;;;18.95;33.38;103104.06;5018841;28;20100;-84
2023/02/27 05:35:06;;;;;;;1.60;1.15;;;;;;;18.94;33.41;103107.66;5011543;28;20054;-84
2023/02/27 05:37:40;;;;;;;1.13;1.02;;;;;;;18.95;33.40;103112.81;5016705;28;20803;-84
2023/02/27 05:40:11;;;;;;;1.13;0.93;;;;;;;18.88;33.26;103108.13;5022658;28;20133;-84
2023/02/27 05:42:46;;;;;;;1.08;0.98;;;;;;;18.86;33.39;103102.97;5018458;28;20479;-84
2023/02/27 05:45:22;;;;;;;1.33;1.00;;;;;;;18.79;33.42;103106.19;5025254;28;20029;-84
2023/02/27 05:47:57;;;;;;;0.85;0.85;;;;;;;18.79;33.53;103111.47;5023033;28;20041;-85
2023/02/27 05:50:27;;;;;;;0.82;0.82;;;;;;;18.89;33.32;103115.94;5024530;28;20048;-84
2023/02/27 05:52:54;;;;;;;;;;;;;;;18.91;33.32;103114.00;5021335;28;20115;-84
2023/02/27 05:55:29;;;;;;;1.52;1.13;;;;;;;18.87;33.16;103103.81;5022641;28;19928;-83
2023/02/27 05:58:05;;;;;;;1.05;1.00;;;;;;;18.85;33.58;103111.84;5014067;28;20045;-84
2023/02/27 06:00:37;;;;;;;0.65;0.65;;;;;;;18.86;33.28;103108.25;5017819;28;20048;-84
2023/02/27 06:03:03;;;;;;;0.90;0.82;;;;;;;18.84;33.41;103104.03;5018884;28;20042;-84
2023/02/27 06:05:29;;;;;;;1.33;1.13;;;;;;;18.93;33.31;103112.09;5003333;28;20045;-84
2023/02/27 06:07:55;;;;;;;1.25;1.05;;;;;;;18.74;33.51;103109.19;5020975;28;20077;-84
2023/02/27 06:10:21;;;;;;;1.25;1.15;;;;;;;18.78;33.53;103110.63;5022617;28;20153;-85
2023/02/27 06:12:47;;;;;;;1.30;1.20;;;;;;;18.81;33.42;103118.31;5017592;28;20112;-84
2023/02/27 06:15:13;;;;;;;1.10;1.00;;;;;;;18.79;33.43;103114.09;5039658;28;20056;-84
2023/02/27 06:17:39;;;;;;;1.13;1.02;;;;;;;18.87;33.25;103114.38;5023331;28;20118;-84
2023/02/27 06:20:06;;;;;;;1.38;1.05;;;;;;;18.78;33.47;103109.78;5015067;28;20042;-84
2023/02/27 06:22:32;;;;;;;1.75;0.98;;;;;;;18.71;33.53;103096.22;5018585;28;20650;-84
2023/02/27 06:24:58;;;;;;;1.33;0.93;;;;;;;18.80;33.40;103105.22;5014762;28;20144;-84
2023/02/27 06:27:25;;;;;;;1.55;1.02;;;;;;;19.11;33.09;103111.63;5017628;28;20041;-85
2023/02/27 06:29:52;;;;;;;0.77;0.77;;;;;;;19.85;31.82;103118.88;5015996;28;20629;-85
2023/02/27 06:32:19;;;;;;;1.40;1.17;;;;;;;20.10;31.32;103115.06;5019571;28;20048;-84
2023/02/27 06:34:44;;;;;;;1.00;1.00;;;;;;;20.18;31.12;103119.75;5017191;28;20076;-84
2023/02/27 06:37:10;;;;;;;1.10;0.98;;;;;;;20.11;31.11;103115.94;5022047;28;20450;-84
2023/02/27 06:39:36;;;;;;;0.93;0.93;;;;;;;20.11;31.26;103122.06;5016774;28;20052;-84
2023/02/27 06:42:01;;;;;;;1.02;0.93;;;;;;;20.09;31.36;103131.06;5020561;28;20095;-84
2023/02/27 06:44:28;;;;;;;1.00;1.00;;;;;;;20.08;31.28;103130.22;5017083;28;20057;-85
2023/02/27 06:46:54;;;;;;;0.65;0.65;;;;;;;20.00;31.57;103127.38;5019794;28;20033;-85
2023/02/27 06:49:19;;;;;;;1.25;1.00;;;;;;;19.98;31.46;103125.81;5016940;28;20506;-85
2023/02/27 06:51:45;;;;;;;0.85;0.85;;;;;;;19.86;31.75;103131.13;5020723;28;20048;-85
2023/02/27 06:54:10;;;;;;;1.23;1.13;;;;;;;19.95;31.62;103137.50;5023732;28;20067;-85
2023/02/27 06:56:36;;;;;;;1.15;1.05;;;;;;;19.77;31.85;103126.63;5022335;28;20033;-85
2023/02/27 06:59:01;;;;;;;1.05;0.90;;;;;;;19.53;32.29;103133.81;5027709;28;20537;-85
2023/02/27 07:01:27;;;;;;;1.05;1.00;;;;;;;19.53;32.21;103150.50;5018397;28;20045;-86
2023/02/27 07:03:53;;;;;;;1.48;1.10;;;;;;;19.47;32.29;103143.06;5027147;28;20041;-85
2023/02/27 07:06:18;;;;;;;1.05;0.93;;;;;;;19.50;32.25;103139.34;5007379;28;20036;-85
2023/02/27 07:08:44;;;;;;;0.90;0.90;;;;;;;19.33;32.53;103143.31;5023119;28;20053;-85
2023/02/27 07:11:10;;;;;;;1.90;1.27;;;;;;;19.40;32.50;103155.09;5021288;28;20092;-84
2023/02/27 07:13:36;;;;;;;1.10;1.00;;;;;;;19.27;32.72;103155.22;5017717;28;20026;-85
2023/02/27 07:16:01;;;;;;;1.25;1.15;;;;;;;19.28;32.85;103159.53;5016721;28;20045;-84
2023/02/27 07:18:27;;;;;;;1.33;1.20;;;;;;;19.31;32.89;103155.81;5019977;28;20067;-83
2023/02/27 07:20:54;;;;;;;1.45;1.35;;;;;;;19.33;32.82;103165.28;5020253;28;20037;-83
2023/02/27 07:23:20;;;;;;;1.35;1.25;;;;;;;19.27;32.73;103154.38;5013382;28;20033;-83
2023/02/27 07:25:47;;;;;;;1.55;1.35;;;;;;;19.30;32.70;103162.91;5018771;28;20065;-84
2023/02/27 07:28:13;;;;;;;1.52;1.30;;;;;;;19.33;32.67;103167.94;5017809;28;20345;-84
2023/02/27 07:30:38;;;;;;;2.40;1.15;;;;;;;19.23;32.85;103164.34;5016979;28;20043;-83
2023/02/27 07:33:04;;;;;;;1.80;1.40;;;;;;;19.43;32.45;103170.72;5017764;28;20407;-84
2023/02/27 07:35:30;;;;;;;2.17;1.40;;;;;;;19.54;32.20;103160.16;5016634;28;20053;-83
2023/02/27 07:37:55;;;;;;;1.30;1.08;;;;;;;20.15;31.32;103165.81;5017529;28;20384;-84
2023/02/27 07:40:21;;;;;;;1.67;1.58;;;;;;;20.61;30.77;103169.97;5021840;28;20044;-84
2023/02/27 07:42:48;;;;;;;1.73;1.20;;;;;;;21.07;30.07;103164.25;5013642;28;20048;-83
2023/02/27 07:45:17;;;;;;;1.02;1.02;;;;;;;21.26;29.63;103170.66;5005787;28;20041;-83
2023/02/27 07:47:43;;;;;;;1.55;1.40;;;;;;;21.29;29.86;103175.69;5019400;28;20033;-83
2023/02/27 07:50:12;;;;;;;1.83;1.60;;;;;;;21.14;30.06;103167.22;5015988;28;20096;-83
2023/02/27 07:52:42;;;;;;;1.67;1.40;;;;;;;21.09;30.16;103174.72;5010457;28;20030;-82
2023/02/27 07:55:10;;;;;;;1.77;1.48;;;;;;;20.92;30.29;103170.03;5017697;28;20038;-81
2023/02/27 07:57:36;;;;;;;1.23;1.13;;;;;;;20.82;30.58;103177.91;5020330;28;20570;-82
2023/02/27 08:00:06;;;;;;;1.50;1.40;;;;;;;20.72;30.63;103184.94;5022428;28;20136;-81
2023/02/27 08:02:37;;;;;;;1.67;1.58;;;;;;;20.68;30.92;103173.78;5022264;28;20044;-82
2023/02/27 08:05:03;;;;;;;2.13;1.50;;;;;;;20.55;30.95;103167.84;5021275;28;20042;-82
2023/02/27 08:07:29;;;;;;;1.77;1.38;;;;;;;20.51;30.96;103169.06;5041258;28;20637;-83
2023/02/27 08:09:55;;;;;;;1.42;1.33;;;;;;;20.45;30.96;103162.44;5021784;28;20069;-82
2023/02/27 08:12:21;;;;;;;1.90;1.50;;;;;;;20.54;30.97;103167.97;5017984;28;20025;-82
2023/02/27 08:14:47;;;;;;;1.58;1.42;;;;;;;20.48;31.00;103180.75;5017163;28;20533;-81
2023/02/27 08:17:12;;;;;;;1.77;1.40;;;;;;;20.29;31.14;103169.97;5015634;28;20037;-83
2023/02/27 08:19:38;;;;;;;1.40;1.27;;;;;;;20.29;30.97;103180.56;5010003;28;20118;-82
2023/02/27 08:22:03;;;;;;;2.10;1.40;;;;;;;20.24;31.35;103172.13;5019000;28;20033;-83
2023/02/27 08:24:30;;;;;;;1.52;1.42;;;;;;;20.07;31.71;103180.59;5017919;28;20037;-82
2023/02/27 08:26:56;;;;;;;1.63;1.38;;;;;;;20.11;31.47;103174.13;5016228;28;20083;-82
2023/02/27 08:29:21;;;;;;;1.45;1.30;;;;;;;20.54;30.76;103167.97;5018060;28;20026;-82
2023/02/27 08:31:47;;;;;;;1.63;1.40;;;;;;;20.98;30.21;103166.84;5016200;28;20034;-82
2023/02/27 08:34:13;;;;;;;1.25;1.15;;;;;;;21.38;29.85;103166.94;5016297;28;20042;-82
2023/02/27 08:36:38;;;;;;;1.52;1.42;;;;;;;21.60;29.29;103168.56;5018790;28;20041;-83
2023/02/27 08:39:05;;;;;;;2.85;1.10;;;;;;;21.53;29.29;103168.25;5004508;28;20041;-82
2023/02/27 08:41:31;;;;;;;1.48;1.38;;;;;;;21.45;29.33;103173.38;5014839;28;20064;-82
2023/02/27 08:43:56;;;;;;;2.13;1.55;;;;;;;21.31;29.66;103177.22;5021749;28;20551;-82
2023/02/27 08:46:22;;;;;;;1.60;1.42;;;;;;;21.24;29.90;103181.41;5020624;28;20518;-83
2023/02/27 08:48:48;;;;;;;1.85;1.55;;;;;;;21.09;29.92;103178.22;5019820;28;20041;-86
2023/02/27 08:51:13;;;;;;;2.47;1.30;;;;;;;20.81;30.11;103181.50;5018208;28;20436;-83
2023/02/27 08:53:39;;;;;;;2.42;1.50;;;;;;;20.86;30.23;103183.81;5019165;28;20087;-83
2023/02/27 08:56:04;;;;;;;2.10;1.50;;;;;;;20.89;30.31;103191.47;5004181;28;20579;-83
2023/02/27 08:58:30;;;;;;;5.47;1.40;;;;;;;20.84;30.23;103186.59;5021617;28;20038;-83
2023/02/27 09:00:56;;;;;;;2.13;1.33;;;;;;;20.80;30.70;103191.28;5016896;28;20084;-83
2023/02/27 09:03:27;;;;;;;3.55;1.48;;;;;;;20.77;30.75;103202.13;5017801;28;21337;-83
2023/02/27 09:05:53;;;;;;;1.20;1.05;;;;;;;20.69;30.73;103199.28;5015095;28;20156;-83
2023/02/27 09:08:18;;;;;;;1.55;1.30;;;;;;;20.62;30.85;103198.09;5017575;28;20077;-82
2023/02/27 09:10:44;;;;;;;1.33;1.23;;;;;;;20.67;30.72;103206.53;5017788;28;20052;-83
2023/02/27 09:13:09;;;;;;;2.05;1.50;;;;;;;20.59;30.92;103214.25;5018044;28;20084;-81
2023/02/27 09:15:36;;;;;;;2.35;1.38;;;;;;;20.58;30.89;103211.72;5023246;28;20489;-82
2023/02/27 09:18:05;;;;;;;1.77;1.40;;;;;;;20.57;30.91;103218.00;5020222;28;20156;-82
2023/02/27 09:20:34;;;;;;;1.80;1.10;;;;;;;20.54;31.11;103218.25;5024758;28;20122;-82
2023/02/27 09:23:00;;;;;;;1.67;1.30;;;;;;;20.48;31.29;103231.03;5020491;28;20614;-82
2023/02/27 09:25:25;;;;;;;2.00;1.27;;;;;;;20.35;31.28;103213.59;5024163;28;20049;-82
2023/02/27 09:27:51;;;;;;;1.23;1.08;;;;;;;20.09;31.56;103211.25;5019209;28;20037;-82
2023/02/27 09:30:17;;;;;;;1.38;1.20;;;;;;;20.11;31.70;103219.94;5025217;28;20125;-82
2023/02/27 09:32:42;;;;;;;1.40;1.30;;;;;;;20.21;31.52;103215.56;5019922;28;20120;-82
2023/02/27 09:35:08;;;;;;;0.93;0.93;;;;;;;20.19;31.54;103224.59;5022086;28;20060;-82
2023/02/27 09:37:34;;;;;;;1.60;1.10;;;;;;;20.08;31.70;103225.44;5024102;28;20043;-82
2023/02/27 09:40:00;;;;;;;1.95;1.48;;;;;;;20.06;31.83;103218.59;5036602;28;20049;-82
2023/02/27 09:42:34;;;;;;;1.30;1.20;;;;;;;19.87;32.17;103224.53;5018996;28;20605;-82
2023/02/27 09:45:03;;;;;;;1.25;1.15;;;;;;;19.76;32.31;103224.56;5022621;28;20049;-82
2023/02/27 09:47:38;;;;;;;1.38;1.10;;;;;;;20.16;31.45;103227.50;5028921;28;20068;-82
2023/02/27 09:50:36;;;;;;;1.30;1.20;;;;;;;20.61;30.86;103228.19;5020359;28;20048;-82
2023/02/27 09:53:04;;;;;;;2.05;1.20;;;;;;;20.89;30.40;103225.91;5017156;28;20150;-81
2023/02/27 09:55:34;;;;;;;1.50;1.10;;;;;;;21.00;30.43;103225.81;5020959;28;20034;-82
2023/02/27 09:58:29;;;;;;;2.47;1.10;;;;;;;20.97;30.24;103223.44;5021595;28;20037;-82
2023/02/27 10:01:17;;;;;;;1.70;1.35;;;;;;;20.93;30.44;103228.16;5013942;28;20044;-82
2023/02/27 10:03:55;;;;;;;1.48;1.15;;;;;;;20.93;30.26;103230.81;5019946;28;20713;-82
2023/02/27 10:06:43;;;;;;;1.73;1.08;;;;;;;20.86;30.30;103228.81;5016798;28;20034;-82
2023/02/27 10:09:20;;;;;;;1.38;1.10;;;;;;;20.83;30.50;103216.69;5017853;28;20530;-82
2023/02/27 10:11:53;;;;;;;2.45;1.17;;;;;;;20.80;30.41;103222.22;5024028;28;20037;-82
2023/02/27 10:14:37;;;;;;;1.45;1.17;;;;;;;20.72;30.67;103214.91;5010415;28;20043;-82
2023/02/27 10:17:11;;;;;;;1.08;0.98;;;;;;;20.69;30.61;103209.88;5024757;28;20037;-81
2023/02/27 10:19:38;;;;;;;1.05;0.95;;;;;;;20.62;30.77;103214.00;5024259;28;20051;-82
2023/02/27 10:22:07;;;;;;;0.90;0.90;;;;;;;20.59;30.88;103216.91;5020362;28;20116;-82
2023/02/27 10:24:45;;;;;;;1.00;0.90;;;;;;;20.41;30.99;103215.78;5020607;28;20042;-82
2023/02/27 10:27:16;;;;;;;0.95;0.88;;;;;;;20.49;31.08;103216.84;5018770;28;20049;-81
2023/02/27 10:29:42;;;;;;;1.13;0.98;;;;;;;20.47;30.92;103217.94;5020534;28;20045;-81
2023/02/27 10:32:13;;;;;;;1.23;1.13;;;;;;;20.41;31.27;103216.59;5022118;28;20036;-82
2023/02/27 10:34:42;;;;;;;1.02;0.88;;;;;;;20.29;31.44;103216.72;5016843;28;20168;-81
2023/02/27 10:37:13;;;;;;;1.20;1.10;;;;;;;20.10;31.67;103212.94;5020475;28;20069;-82
2023/02/27 10:39:46;;;;;;;0.85;0.70;;;;;;;20.05;31.75;103209.81;5019206;28;20148;-82
2023/02/27 10:42:14;;;;;;;1.33;1.17;;;;;;;19.83;32.08;103204.59;5016770;28;20044;-82
2023/02/27 10:44:39;;;;;;;0.88;0.80;;;;;;;19.83;32.22;103208.06;5021951;28;20376;-82
2023/02/27 10:47:05;;;;;;;1.17;1.08;;;;;;;19.94;32.02;103212.50;5018715;28;20033;-82
2023/02/27 10:49:32;;;;;;;1.17;0.95;;;;;;;20.55;30.96;103218.13;5022572;28;20046;-82
2023/02/27 10:52:12;;;;;;;0.70;0.68;;;;;;;20.89;30.66;103217.97;5023218;28;20487;-81
2023/02/27 10:54:38;;;;;;;1.65;1.00;;;;;;;21.06;30.24;103215.56;5016707;28;20049;-82
2023/02/27 10:57:26;;;;;;;0.85;0.85;;;;;;;21.03;30.06;103220.28;5019847;28;20041;-82
2023/02/27 10:59:57;;;;;;;1.50;1.10;;;;;;;21.00;30.39;103207.28;5021416;28;20610;-81
2023/02/27 11:02:42;;;;;;;2.03;0.98;;;;;;;20.89;30.33;103204.72;5020241;28;20033;-81
2023/02/27 11:05:39;;;;;;;0.73;0.70;;;;;;;20.89;30.30;103212.66;5015705;28;20117;-81
2023/02/27 11:08:19;;;;;;;1.98;1.02;;;;;;;20.80;30.44;103196.56;5008166;28;20076;-82
2023/02/27 11:11:05;;;;;;;1.20;1.10;;;;;;;20.83;30.47;103197.31;5017014;28;20046;-82
2023/02/27 11:13:34;;;;;;;0.95;0.70;;;;;;;20.77;30.30;103191.53;5017475;28;20033;-83
2023/02/27 11:16:15;;;;;;;1.08;0.75;;;;;;;20.72;30.40;103196.38;5016587;28;20088;-82
2023/02/27 11:18:43;;;;;;;1.55;0.95;;;;;;;20.62;30.86;103191.97;5016946;28;20175;-82
2023/02/27 11:21:24;;;;;;;0.43;0.40;;;;;;;20.59;30.68;103192.22;5020739;28;20037;-82
2023/02/27 11:23:54;;;;;;;1.20;0.60;;;;;;;20.62;30.74;103202.56;5015068;28;20037;-82
2023/02/27 11:26:22;;;;;;;0.70;0.70;;;;;;;20.54;30.82;103197.91;5018483;28;20124;-81
2023/02/27 11:29:05;;;;;;;0.40;0.40;;;;;;;20.38;31.08;103186.88;5017672;28;20064;-81
2023/02/27 11:31:32;;;;;;;0.82;0.52;;;;;;;20.40;31.19;103196.38;5018830;28;20167;-82
2023/02/27 11:33:59;;;;;;;0.60;0.50;;;;;;;20.26;31.33;103191.38;5019917;28;20103;-82
2023/02/27 11:36:40;;;;;;;0.73;0.73;;;;;;;20.10;31.71;103202.34;5021494;28;20132;-82
2023/02/27 11:39:06;;;;;;;0.47;0.47;;;;;;;20.05;31.79;103204.53;5024971;28;20091;-83
2023/02/27 11:41:33;;;;;;;0.60;0.60;;;;;;;19.88;31.87;103187.38;5022952;28;20045;-82
2023/02/27 11:44:02;;;;;;;1.05;0.70;;;;;;;19.83;32.05;103194.00;5019723;28;20073;-82
2023/02/27 11:46:28;;;;;;;0.90;0.45;;;;;;;19.70;32.32;103195.94;5022281;28;20033;-84
2023/02/27 11:49:08;;;;;;;1.17;0.45;;;;;;;19.82;32.01;103200.25;5021915;28;20025;-81